ADDS TAF Board (Experimental) INFO Settings
IDs: Format: Expanded Condensed

KTPA - Tampa Intl Arpt, FL, US

Issued at 1720 UTC 09 Feb 2016
Updated at: 2040 UTC 09 Feb 2016
Time1953Z 09/21Z 09/22Z 09/23Z 10/00Z 10/01Z 10/02Z 10/03Z 10/04Z 10/05Z 10/06Z 10/07Z 10/08Z 10/09Z
Type OBS PRVL PRVL PRVL PRVL PRVL PRVL PRVL PRVL PRVL PRVL PRVL PRVL PRVL
VIS 10 >6 >6 >6 >6 >6 >6 >6 >6 >6 >6 >6 >6 >6
CIG 70 50 50 50 50 50 50 50 50 50 50 50 50 --
Cover BKN BKN BKN BKN BKN BKN BKN BKN BKN BKN BKN BKN BKN SCT
FltCat VFR VFR VFR VFR VFR VFR VFR VFR VFR VFR VFR VFR VFR VFR
WX -- -- -- -- -- -- -- -- -- -- -- -- -- --
WDir 270 290 290 290 310 310 310 310 310 310 310 310 310 340
WSpd 18 14 14 14 12 12 12 12 12 12 12 12 12 9
WGst 29 19 19 19 -- -- -- -- -- -- -- -- -- --
R01/19
XWnd 18 13 13 13 9 9 9 9 9 9 9 9 9 3
XGst 29 18 18 18 -- -- -- -- -- -- -- -- -- --
HWnd -1 4 4 4 7 7 7 7 7 7 7 7 7 8
HGst -1 6 6 6 -- -- -- -- -- -- -- -- -- --
R10/28
XWnd -1 4 4 4 7 7 7 7 7 7 7 7 7 8
XGst -1 6 6 6 -- -- -- -- -- -- -- -- -- --
HWnd -18 -13 -13 -13 -9 -9 -9 -9 -9 -9 -9 -9 -9 -3
HGst -29 -18 -18 -18 -- -- -- -- -- -- -- -- -- --

NOTE: TEMPO conditions in [brackets]. Keep in mind TEMPO conditions might be better (lower impact) than prevailing conditions.

Raw TAF
KTPA 091720Z 0918/1018 29014G19KT P6SM BKN050
  FM100000 31012KT P6SM BKN050
  FM100900 34009KT P6SM SCT040
  FM101500 33012KT P6SM BKN040
  FM101700 30012G18KT P6SM SCT040


Raw METAR
KTPA 091953Z 27018G29KT 10SM SCT050 BKN070 BKN280 17/04 A3000 RMK AO2 PK WND 25030/1925 SLP157 T01670039
KTPA 091853Z 27018G27KT 10SM SCT049 BKN065 16/06 A2999 RMK AO2 PK WND 26027/1852 SLP156 T01560061
KTPA 091753Z 28007KT 10SM SCT050 BKN070 14/04 A3004 RMK AO2 SLP172 T01440044 10144 20106 58015

METAR Board
Radar Display
Forecast Discussion

TAF Board Legend

Potential Impact
Threat None Slight Moderate High
Visibility (sm) ≥5.1 5.1>X≥3 3>X≥1 <1
Ceiling (100 ft) ≥30.1 30.1>X≥10 10>X≥5 <5
Wind Speed (kt) <10 10≤X<20 20≤X<30 ≥30
Wind Gust (kt) <15 15≤X<25 25≤X<35 ≥35
Weather No Wx Reported VCTS,-TS,-FZRA,SN TS,FZRA +TS,+FZRA,+SN